Time;durP1;ratioP1;P1;durP2;ratioP2;P2;SDS_P1;SDS_P2;PMS_P1;PMS_P2;Temp;Humidity;BMP_temperature;BMP_pressure;BME280_temperature;BME280_humidity;BME280_pressure;Samples;Min_cycle;Max_cycle;Signal;HPM_P1;HPM_P2
2022/12/01 00:01:20;;;;;;;24.47;17.07;;;;;;;4.54;86.53;99260.31;4974210;28;103242;-75
2022/12/01 00:03:48;;;;;;;26.43;17.13;;;;;;;4.46;86.20;99275.47;4972677;28;103359;-76
2022/12/01 00:06:18;;;;;;;25.47;16.70;;;;;;;4.42;86.16;99268.63;4959710;28;102776;-75
2022/12/01 00:11:30;;;;;;;25.80;17.40;;;;;;;4.57;86.20;99275.91;4967821;28;104247;-76
2022/12/01 00:13:58;;;;;;;26.30;17.17;;;;;;;4.27;86.62;99269.19;4965217;28;103017;-76
2022/12/01 00:16:27;;;;;;;26.03;16.10;;;;;;;4.47;86.56;99274.53;4970735;28;103290;-76
2022/12/01 00:18:55;;;;;;;25.37;16.60;;;;;;;4.42;87.08;99264.25;4964156;28;102691;-76
2022/12/01 00:21:25;;;;;;;26.07;17.73;;;;;;;4.51;86.50;99260.44;4959456;28;103227;-76
2022/12/01 00:23:55;;;;;;;22.97;16.47;;;;;;;4.40;87.48;99265.22;4971835;28;103257;-76
2022/12/01 00:26:24;;;;;;;24.23;16.63;;;;;;;4.30;86.87;99266.47;4981707;28;102661;-75
2022/12/01 00:28:56;;;;;;;27.90;17.47;;;;;;;4.31;87.17;99266.44;4966391;28;102785;-75
2022/12/01 00:31:24;;;;;;;25.77;17.67;;;;;;;4.26;87.33;99270.13;4980608;28;103399;-76
2022/12/01 00:33:54;;;;;;;25.03;17.13;;;;;;;4.57;86.78;99268.03;4966499;28;103256;-76
2022/12/01 00:36:22;;;;;;;29.47;18.60;;;;;;;4.45;86.92;99269.38;4968514;28;102716;-76
2022/12/01 00:38:52;;;;;;;25.50;17.77;;;;;;;4.52;86.90;99259.53;4969405;28;103780;-76
2022/12/01 00:41:20;;;;;;;25.07;16.37;;;;;;;4.41;86.91;99272.13;4968120;28;103338;-75
2022/12/01 00:43:49;;;;;;;27.67;17.20;;;;;;;4.20;87.39;99263.38;4971835;28;103197;-75
2022/12/01 00:46:17;;;;;;;26.63;17.67;;;;;;;4.40;87.65;99267.84;4965827;28;103113;-75
2022/12/01 00:48:45;;;;;;;26.20;16.77;;;;;;;4.12;87.82;99275.03;4974900;28;102684;-76
2022/12/01 00:51:14;;;;;;;24.93;16.73;;;;;;;4.30;87.23;99266.47;4970458;28;103274;-77
2022/12/01 00:53:42;;;;;;;22.50;16.00;;;;;;;4.45;87.26;99268.50;4970186;28;103299;-76
2022/12/01 00:56:13;;;;;;;25.23;16.80;;;;;;;4.49;87.13;99264.88;4968193;28;102643;-76
2022/12/01 00:58:41;;;;;;;23.80;15.83;;;;;;;4.52;87.22;99275.22;4983913;28;102887;-76
2022/12/01 01:01:09;;;;;;;24.33;16.80;;;;;;;4.42;87.08;99276.47;4968926;28;103911;-76
2022/12/01 01:03:37;;;;;;;25.07;16.57;;;;;;;4.18;87.95;99269.56;4977673;28;103183;-76
2022/12/01 01:06:06;;;;;;;24.67;16.37;;;;;;;4.40;86.85;99270.47;4962651;28;102714;-77
2022/12/01 01:08:36;;;;;;;23.70;15.97;;;;;;;4.14;87.29;99273.19;4963034;28;103597;-77
2022/12/01 01:11:05;;;;;;;23.87;17.27;;;;;;;4.27;87.20;99269.19;4979230;28;103638;-76
2022/12/01 01:13:34;;;;;;;26.17;17.17;;;;;;;4.13;87.19;99267.09;4965033;28;103386;-77
2022/12/01 01:16:04;;;;;;;24.03;16.77;;;;;;;4.31;86.75;99276.03;4960109;28;102686;-76
2022/12/01 01:18:33;;;;;;;23.27;15.97;;;;;;;4.05;87.60;99280.47;4966071;28;103458;-76
2022/12/01 01:21:03;;;;;;;25.60;18.23;;;;;;;3.89;88.54;99273.25;4959468;28;104077;-76
2022/12/01 01:23:31;;;;;;;24.67;17.03;;;;;;;4.02;88.01;99283.19;4980299;28;104132;-76
2022/12/01 01:26:03;;;;;;;23.73;16.07;;;;;;;4.18;87.52;99285.25;4976034;28;102591;-76
2022/12/01 01:28:32;;;;;;;24.90;16.30;;;;;;;4.23;87.45;99291.16;4965481;28;103697;-76
2022/12/01 01:31:00;;;;;;;22.37;15.93;;;;;;;4.18;87.63;99285.25;4980584;28;103244;-76
2022/12/01 01:33:29;;;;;;;24.90;16.43;;;;;;;4.09;87.64;99286.44;4966334;28;103293;-77
2022/12/01 01:35:58;;;;;;;22.90;15.67;;;;;;;3.96;88.63;99279.94;4966083;28;102690;-77
2022/12/01 01:38:29;;;;;;;22.87;16.07;;;;;;;3.87;88.33;99281.16;4981443;28;102679;-76
2022/12/01 01:40:57;;;;;;;23.70;16.37;;;;;;;3.95;87.73;99281.72;4964614;28;103255;-76
2022/12/01 01:43:44;;;;;;;27.67;17.80;;;;;;;4.12;87.19;99281.09;4973343;28;103375;-76
2022/12/01 01:46:15;;;;;;;22.73;15.50;;;;;;;4.00;86.83;99281.56;4971368;28;102745;-76
2022/12/01 01:48:49;;;;;;;24.80;16.07;;;;;;;4.04;87.09;99278.75;4978851;28;103782;-76
2022/12/01 01:51:22;;;;;;;24.10;16.47;;;;;;;4.02;86.00;99285.81;4965079;28;103102;-76
2022/12/01 01:53:54;;;;;;;23.27;15.50;;;;;;;4.01;86.41;99288.50;4981594;28;103239;-77
2022/12/01 01:56:23;;;;;;;23.10;15.97;;;;;;;3.84;86.95;99289.13;4973154;28;102650;-76
2022/12/01 01:58:53;;;;;;;23.20;15.70;;;;;;;3.76;86.62;99291.13;4966186;28;103812;-76
2022/12/01 02:01:21;;;;;;;22.70;15.70;;;;;;;3.86;86.49;99284.69;4968100;28;103695;-76
2022/12/01 02:03:52;;;;;;;22.47;15.70;;;;;;;3.90;86.61;99286.25;4967552;28;103192;-76
2022/12/01 02:06:22;;;;;;;25.53;16.40;;;;;;;4.03;86.32;99282.31;4968509;28;104144;-76
2022/12/01 02:08:50;;;;;;;24.87;15.60;;;;;;;3.94;86.16;99284.38;4968623;28;102607;-76
2022/12/01 02:11:50;;;;;;;21.50;14.97;;;;;;;4.10;86.36;99278.53;4966568;28;103254;-76
2022/12/01 02:14:41;;;;;;;21.57;15.63;;;;;;;4.05;86.20;99280.47;4979357;28;103363;-76
2022/12/01 02:17:16;;;;;;;21.50;15.47;;;;;;;4.06;85.28;99276.97;4965550;28;102818;-77
2022/12/01 02:20:06;;;;;;;21.20;15.43;;;;;;;4.07;85.76;99278.66;4967483;28;103992;-77
2022/12/01 02:22:53;;;;;;;21.50;14.50;;;;;;;4.30;84.83;99277.78;4965472;28;104076;-76
2022/12/01 02:25:35;;;;;;;21.40;14.00;;;;;;;4.33;84.06;99279.44;4956959;28;102714;-76
2022/12/01 02:28:17;;;;;;;19.33;13.63;;;;;;;3.92;84.56;99279.22;4963363;28;102825;-76
2022/12/01 02:30:50;;;;;;;22.47;14.93;;;;;;;3.90;84.52;99275.78;4965686;28;102713;-76
2022/12/01 02:33:23;;;;;;;20.53;14.57;;;;;;;4.05;84.96;99277.00;4959334;28;102998;-76
2022/12/01 02:35:57;;;;;;;20.77;14.00;;;;;;;4.36;84.18;99271.47;4976640;28;103187;-76
2022/12/01 02:38:30;;;;;;;22.27;14.70;;;;;;;4.28;83.45;99276.16;4976686;28;102793;-76
2022/12/01 02:41:05;;;;;;;21.70;15.00;;;;;;;4.09;83.86;99266.38;4978248;28;104037;-76
2022/12/01 02:43:40;;;;;;;17.90;12.83;;;;;;;4.49;84.04;99268.31;4960972;28;103102;-76
2022/12/01 02:46:15;;;;;;;22.13;15.20;;;;;;;4.28;83.68;99271.78;4955635;28;104163;-75
2022/12/01 02:48:48;;;;;;;20.70;14.57;;;;;;;4.18;84.28;99269.56;4964134;28;102818;-77
2022/12/01 02:51:20;;;;;;;20.10;13.40;;;;;;;4.08;84.71;99264.69;4971848;28;102769;-76
2022/12/01 02:53:51;;;;;;;21.70;12.97;;;;;;;4.15;84.01;99267.06;4966794;28;103250;-76
2022/12/01 02:56:22;;;;;;;20.57;13.60;;;;;;;4.33;83.05;99268.97;4959628;28;103143;-76
2022/12/01 02:58:49;;;;;;;19.80;13.63;;;;;;;4.28;82.16;99270.91;4967285;28;102573;-76
2022/12/01 03:01:44;;;;;;;20.63;14.10;;;;;;;4.05;83.00;99285.69;4965997;28;102745;-77
2022/12/01 03:04:41;;;;;;;20.00;13.73;;;;;;;3.99;83.45;99275.47;4960704;28;104213;-76
2022/12/01 03:07:19;;;;;;;23.03;14.07;;;;;;;3.74;84.82;99277.25;4960058;28;105994;-76
2022/12/01 03:09:57;;;;;;;20.57;13.00;;;;;;;4.19;83.32;99269.50;4962447;28;102648;-77
2022/12/01 03:12:34;;;;;;;17.70;12.17;;;;;;;4.27;83.88;99269.19;4953985;28;104153;-76
2022/12/01 03:15:09;;;;;;;19.00;12.90;;;;;;;3.83;83.95;99269.09;4957066;28;103346;-76
2022/12/01 03:17:45;;;;;;;21.03;13.57;;;;;;;3.77;84.26;99264.09;4958181;28;103379;-76
2022/12/01 03:20:18;;;;;;;20.77;13.50;;;;;;;3.84;84.60;99260.34;4957210;28;103590;-77
2022/12/01 03:22:52;;;;;;;21.40;15.10;;;;;;;3.99;84.55;99269.38;4974512;28;102697;-77
2022/12/01 03:25:25;;;;;;;21.20;14.37;;;;;;;4.03;84.01;99273.59;4957456;28;103335;-77
2022/12/01 03:27:55;;;;;;;19.83;14.33;;;;;;;3.93;84.89;99267.84;4960349;28;103320;-77
2022/12/01 03:30:46;;;;;;;21.83;13.80;;;;;;;3.76;84.80;99266.78;4971257;28;102637;-76
2022/12/01 03:33:21;;;;;;;21.27;13.87;;;;;;;3.92;84.29;99265.31;4960212;28;103192;-76
2022/12/01 03:35:54;;;;;;;21.17;14.93;;;;;;;3.96;84.71;99275.56;4973273;28;103304;-76
2022/12/01 03:38:24;;;;;;;22.37;14.93;;;;;;;3.77;85.43;99269.31;4955687;28;103456;-77
2022/12/01 03:40:57;;;;;;;23.00;15.57;;;;;;;3.79;85.36;99267.50;4958301;28;102696;-76
2022/12/01 03:43:30;;;;;;;18.70;12.83;;;;;;;4.06;85.00;99266.50;4951394;28;103915;-76
2022/12/01 03:46:05;;;;;;;23.97;15.87;;;;;;;4.29;83.22;99268.25;4957126;28;103840;-76
2022/12/01 03:48:34;;;;;;;20.73;14.30;;;;;;;4.43;83.49;99270.34;4971509;28;103951;-77
2022/12/01 03:51:10;;;;;;;20.23;14.67;;;;;;;4.28;82.85;99273.53;4962311;28;102685;-77
2022/12/01 03:53:47;;;;;;;22.80;14.63;;;;;;;3.95;84.31;99271.28;4974293;28;104052;-77
2022/12/01 03:56:19;;;;;;;22.10;14.87;;;;;;;3.89;84.86;99274.09;4971728;28;103307;-76
2022/12/01 03:58:50;;;;;;;20.70;14.30;;;;;;;4.33;83.28;99269.81;4960914;28;103207;-77
2022/12/01 04:01:19;;;;;;;22.00;14.97;;;;;;;4.06;83.26;99266.50;4964078;28;102670;-77
2022/12/01 04:03:48;;;;;;;22.20;15.87;;;;;;;3.96;83.74;99265.13;4951094;28;103843;-77
2022/12/01 04:06:16;;;;;;;21.57;14.60;;;;;;;4.02;84.25;99272.75;4953077;28;104355;-79
2022/12/01 04:08:44;;;;;;;22.83;15.30;;;;;;;3.77;84.87;99271.94;4948378;28;103281;-78
2022/12/01 04:13:59;;;;;;;23.73;15.43;;;;;;;4.21;82.92;99272.06;4956341;28;102740;-78
2022/12/01 04:16:27;;;;;;;21.33;14.40;;;;;;;4.07;83.72;99273.41;4954696;28;103939;-78
2022/12/01 04:18:56;;;;;;;24.73;15.60;;;;;;;4.24;82.96;99277.19;4968149;28;103187;-78
2022/12/01 04:21:24;;;;;;;22.17;14.87;;;;;;;4.24;83.12;99279.81;4946971;28;102898;-79
2022/12/01 04:24:01;;;;;;;22.50;15.30;;;;;;;4.45;83.33;99271.13;4979967;28;103718;-78
2022/12/01 04:26:29;;;;;;;21.87;15.03;;;;;;;4.34;82.69;99270.69;4963441;28;103257;-77
2022/12/01 04:28:58;;;;;;;24.47;15.97;;;;;;;4.37;82.42;99270.56;4960516;28;103923;-79
2022/12/01 04:31:25;;;;;;;24.43;16.47;;;;;;;3.88;83.66;99269.78;4953375;28;102669;-76
2022/12/01 04:33:54;;;;;;;23.57;16.63;;;;;;;4.07;84.71;99276.03;4954216;28;102709;-76
2022/12/01 04:36:27;;;;;;;22.80;14.60;;;;;;;4.38;83.40;99272.28;4963242;28;105863;-75
2022/12/01 04:38:55;;;;;;;22.47;15.17;;;;;;;4.05;84.13;99270.00;4962509;28;103278;-75
2022/12/01 04:41:23;;;;;;;23.13;16.20;;;;;;;3.96;85.11;99275.56;4966330;28;102804;-75
2022/12/01 04:43:52;;;;;;;21.07;14.77;;;;;;;4.13;84.66;99272.34;4967359;28;103877;-89
2022/12/01 04:46:20;;;;;;;23.43;15.57;;;;;;;3.85;85.14;99272.50;4951242;28;104018;-88
2022/12/01 04:48:49;;;;;;;23.93;15.97;;;;;;;3.65;85.75;99279.38;4950582;28;103234;-77
2022/12/01 04:51:17;;;;;;;22.87;15.53;;;;;;;3.40;85.78;99282.81;4968407;28;102737;-89
2022/12/01 04:53:46;;;;;;;25.47;17.27;;;;;;;3.63;86.32;99266.34;4949879;28;102813;-87
2022/12/01 04:56:14;;;;;;;25.90;16.40;;;;;;;3.53;85.49;99279.78;4955206;28;102768;-88
2022/12/01 04:58:42;;;;;;;24.57;16.43;;;;;;;3.78;86.02;99276.25;4958176;28;103279;-87
2022/12/01 05:01:12;;;;;;;21.60;14.83;;;;;;;4.05;85.25;99272.63;4962023;28;102837;-87
2022/12/01 05:03:41;;;;;;;23.90;16.10;;;;;;;3.99;83.91;99274.59;4953176;28;102753;-87
2022/12/01 05:06:11;;;;;;;23.67;16.33;;;;;;;4.05;83.72;99275.25;4956785;28;103631;-89
2022/12/01 05:08:39;;;;;;;24.87;16.23;;;;;;;3.98;84.24;99267.69;4959914;28;102782;-90
2022/12/01 05:11:11;;;;;;;22.17;15.00;;;;;;;4.30;84.30;99279.53;4943707;28;102734;-88
2022/12/01 05:13:39;;;;;;;25.70;16.80;;;;;;;4.37;82.44;99276.66;4965925;28;103797;-89
2022/12/01 05:16:09;;;;;;;23.57;16.33;;;;;;;4.24;82.77;99287.66;4961980;28;103219;-88
2022/12/01 05:18:37;;;;;;;18.77;12.57;;;;;;;4.60;82.35;99283.63;4947974;28;103154;-88
2022/12/01 05:21:11;;;;;;;22.50;15.13;;;;;;;4.66;82.43;99278.13;4941240;28;102842;-85
2022/12/01 05:23:39;;;;;;;24.90;16.57;;;;;;;4.17;82.49;99278.31;4970389;28;102731;-87
2022/12/01 05:26:09;;;;;;;23.27;15.80;;;;;;;4.17;83.23;99284.41;4957703;28;103380;-87
2022/12/01 05:28:37;;;;;;;18.70;13.23;;;;;;;4.60;83.37;99278.41;4958072;28;103394;-88
2022/12/01 05:31:05;;;;;;;24.57;16.40;;;;;;;4.54;82.22;99274.25;4967293;28;102794;-86
2022/12/01 05:33:33;;;;;;;24.77;16.03;;;;;;;4.26;82.18;99285.81;4954736;28;102808;-87
2022/12/01 05:36:01;;;;;;;22.30;15.33;;;;;;;4.34;82.75;99289.00;4952948;28;103055;-85
2022/12/01 05:38:29;;;;;;;25.30;15.57;;;;;;;3.89;84.28;99292.41;4968970;28;103500;-87
2022/12/01 05:40:56;;;;;;;21.13;13.73;;;;;;;4.23;83.41;99285.94;4972595;28;102861;-87
2022/12/01 05:43:26;;;;;;;21.73;15.50;;;;;;;4.36;82.12;99290.63;4962577;28;102748;-87
2022/12/01 05:45:57;;;;;;;23.03;13.90;;;;;;;4.45;83.00;99284.22;4974514;28;104199;-87
2022/12/01 05:48:25;;;;;;;19.40;13.40;;;;;;;4.18;83.51;99288.72;4966371;28;103215;-83
2022/12/01 05:50:53;;;;;;;17.47;12.90;;;;;;;4.55;82.92;99280.31;4973688;28;102963;-88
2022/12/01 05:53:21;;;;;;;22.23;14.50;;;;;;;4.38;82.66;99285.38;4973584;28;103519;-87
2022/12/01 05:55:53;;;;;;;21.27;15.00;;;;;;;4.04;83.98;99283.16;4964730;28;103871;-88
2022/12/01 05:58:21;;;;;;;21.20;14.43;;;;;;;4.33;82.73;99282.03;4979127;28;103215;-88
2022/12/01 06:00:50;;;;;;;23.17;15.27;;;;;;;4.43;82.49;99286.03;4977229;28;102759;-86
2022/12/01 06:03:18;;;;;;;20.07;14.20;;;;;;;4.55;82.36;99291.63;4975697;28;102941;-90
2022/12/01 06:05:46;;;;;;;20.73;14.40;;;;;;;4.30;83.18;99293.47;4958860;28;102684;-87
2022/12/01 06:08:14;;;;;;;22.50;14.97;;;;;;;4.47;82.44;99295.47;4960863;28;102972;-86
2022/12/01 06:10:42;;;;;;;20.63;14.27;;;;;;;4.73;82.35;99289.22;4959832;28;103051;-89
2022/12/01 06:13:09;;;;;;;21.17;13.13;;;;;;;4.81;81.68;99290.63;4964743;28;102728;-88
2022/12/01 06:15:37;;;;;;;22.43;16.03;;;;;;;4.74;81.74;99299.66;4957203;28;103280;-79
2022/12/01 06:18:06;;;;;;;24.03;16.20;;;;;;;4.42;81.92;99297.41;4959645;28;102616;-78
2022/12/01 06:20:34;;;;;;;25.70;16.03;;;;;;;4.33;82.73;99300.34;4977226;28;102803;-81
2022/12/01 06:23:02;;;;;;;25.00;16.43;;;;;;;4.32;82.89;99288.22;4970451;28;102736;-84
2022/12/01 06:25:30;;;;;;;24.63;16.03;;;;;;;4.30;83.57;99295.25;4962246;28;103420;-79
2022/12/01 06:27:58;;;;;;;21.40;15.17;;;;;;;4.22;83.79;99292.06;4979374;28;103392;-81
2022/12/01 06:30:26;;;;;;;23.50;16.87;;;;;;;4.32;83.75;99290.81;4966117;28;102787;-81
2022/12/01 06:32:54;;;;;;;24.17;17.07;;;;;;;4.33;83.42;99302.97;4969205;28;102712;-79
2022/12/01 06:35:23;;;;;;;26.63;16.77;;;;;;;4.34;83.13;99307.31;4984039;28;103340;-81
2022/12/01 06:37:53;;;;;;;25.83;17.33;;;;;;;4.20;83.74;99310.44;4971617;28;103379;-80
2022/12/01 06:40:21;;;;;;;23.53;15.63;;;;;;;4.12;84.87;99311.63;4980138;28;102716;-78
2022/12/01 06:42:49;;;;;;;28.13;16.93;;;;;;;4.18;84.14;99311.41;4966534;28;102827;-80
2022/12/01 06:45:17;;;;;;;21.27;15.63;;;;;;;4.09;84.77;99315.22;4981090;28;103378;-79
2022/12/01 06:47:46;;;;;;;23.60;16.37;;;;;;;4.02;84.80;99311.09;4957310;28;103257;-82
2022/12/01 06:50:17;;;;;;;22.20;16.10;;;;;;;3.97;84.84;99308.66;4962680;28;102768;-78
2022/12/01 06:52:46;;;;;;;24.90;16.70;;;;;;;3.85;85.34;99311.72;4953033;28;104760;-78
2022/12/01 06:55:15;;;;;;;21.67;15.37;;;;;;;3.99;85.11;99317.31;4952001;28;104350;-78
2022/12/01 06:57:43;;;;;;;24.97;16.87;;;;;;;3.97;85.13;99308.66;4948709;28;103207;-78
2022/12/01 07:00:20;;;;;;;22.70;15.80;;;;;;;3.96;84.17;99306.94;4972773;28;103880;-78
2022/12/01 07:02:48;;;;;;;25.73;16.03;;;;;;;4.05;84.97;99309.25;4973178;28;102823;-76
2022/12/01 07:05:16;;;;;;;21.67;15.77;;;;;;;4.30;84.27;99313.56;4970386;28;103235;-75
2022/12/01 07:07:48;;;;;;;22.47;15.83;;;;;;;4.10;84.57;99316.91;4969717;28;103207;-75
2022/12/01 07:10:16;;;;;;;22.23;15.30;;;;;;;3.87;84.67;99322.13;4938604;28;102677;-75
2022/12/01 07:12:43;;;;;;;24.53;16.13;;;;;;;3.92;85.28;99325.44;4956040;28;102935;-75
2022/12/01 07:15:12;;;;;;;22.10;15.00;;;;;;;4.34;84.55;99333.47;4953490;28;103274;-75
2022/12/01 07:17:40;;;;;;;22.43;14.73;;;;;;;4.22;84.68;99323.44;4949466;28;103316;-75
2022/12/01 07:20:10;;;;;;;23.40;16.20;;;;;;;4.04;84.78;99325.00;4949552;28;102716;-75
2022/12/01 07:22:38;;;;;;;20.67;14.87;;;;;;;3.99;84.98;99319.06;4962122;28;102721;-74
2022/12/01 07:25:08;;;;;;;24.57;15.27;;;;;;;4.20;84.91;99327.91;4950049;28;103746;-76
2022/12/01 07:27:36;;;;;;;21.87;15.73;;;;;;;4.08;85.20;99322.19;4947479;28;103306;-75
2022/12/01 07:30:05;;;;;;;23.50;15.43;;;;;;;4.09;85.04;99323.06;4956147;28;103195;-75
2022/12/01 07:32:33;;;;;;;20.20;14.10;;;;;;;4.26;85.54;99331.16;4957186;28;103321;-75
2022/12/01 07:35:01;;;;;;;22.20;15.47;;;;;;;4.56;83.69;99335.22;4948405;28;104022;-75
2022/12/01 07:37:28;;;;;;;22.70;16.70;;;;;;;4.17;83.86;99328.00;4954345;28;103337;-76
2022/12/01 07:39:56;;;;;;;20.23;13.33;;;;;;;4.37;84.12;99330.75;4954878;28;102752;-76
2022/12/01 07:42:25;;;;;;;21.53;15.07;;;;;;;4.28;84.38;99331.06;4944377;28;102802;-75
2022/12/01 07:44:53;;;;;;;22.50;14.90;;;;;;;4.35;84.89;99337.81;4950736;28;103563;-75
2022/12/01 07:47:21;;;;;;;22.97;16.23;;;;;;;4.26;84.83;99336.38;4957954;28;103386;-76
2022/12/01 07:49:49;;;;;;;24.60;15.50;;;;;;;4.41;84.63;99345.41;4945229;28;103129;-75
2022/12/01 07:52:17;;;;;;;21.17;15.23;;;;;;;4.32;84.39;99340.53;4963270;28;102732;-76
2022/12/01 07:54:45;;;;;;;24.03;15.70;;;;;;;3.99;84.82;99329.50;4941872;28;103807;-75
2022/12/01 07:57:13;;;;;;;22.00;15.50;;;;;;;3.92;85.32;99336.75;4931597;28;103328;-76
2022/12/01 07:59:43;;;;;;;22.43;14.80;;;;;;;3.92;85.29;99341.13;4954299;28;102697;-75
2022/12/01 08:02:10;;;;;;;21.97;15.33;;;;;;;3.99;85.40;99332.13;4950814;28;102869;-75
2022/12/01 08:04:39;;;;;;;21.60;15.37;;;;;;;3.91;85.79;99327.19;4952005;28;103211;-75
2022/12/01 08:07:06;;;;;;;22.80;16.40;;;;;;;3.83;86.28;99329.22;4967245;28;103208;-76
2022/12/01 08:09:34;;;;;;;24.67;16.10;;;;;;;4.13;84.06;99334.28;4965956;28;102923;-76
2022/12/01 08:12:02;;;;;;;22.57;15.03;;;;;;;4.16;84.57;99336.75;4956238;28;103087;-75
2022/12/01 08:14:30;;;;;;;22.10;14.90;;;;;;;4.05;84.04;99332.78;4954421;28;104180;-76
2022/12/01 08:17:00;;;;;;;23.33;16.37;;;;;;;4.07;84.23;99346.63;4970450;28;104575;-75
2022/12/01 08:19:28;;;;;;;20.67;15.03;;;;;;;4.08;84.74;99342.25;4957175;28;102703;-75
2022/12/01 08:21:55;;;;;;;20.30;14.40;;;;;;;4.25;84.96;99354.72;4963805;28;102833;-75
2022/12/01 08:24:24;;;;;;;19.83;13.90;;;;;;;4.12;84.84;99353.47;4953320;28;104228;-75
2022/12/01 08:26:52;;;;;;;21.23;14.37;;;;;;;3.96;85.30;99354.00;4955452;28;103349;-76
2022/12/01 08:29:20;;;;;;;19.80;14.33;;;;;;;3.94;85.68;99352.38;4954219;28;102848;-75
2022/12/01 08:31:48;;;;;;;20.50;14.30;;;;;;;4.17;85.14;99352.41;4958197;28;103843;-75
2022/12/01 08:34:19;;;;;;;21.50;14.70;;;;;;;4.17;85.55;99348.94;4955620;28;104887;-75
2022/12/01 08:36:47;;;;;;;21.53;14.90;;;;;;;3.96;85.16;99355.75;4974576;28;103290;-75
2022/12/01 08:39:15;;;;;;;21.97;15.17;;;;;;;4.16;85.09;99355.91;4957140;28;103142;-75
2022/12/01 08:41:43;;;;;;;21.07;14.27;;;;;;;4.49;84.75;99359.06;4959166;28;102733;-75
2022/12/01 08:44:11;;;;;;;23.03;15.53;;;;;;;4.25;84.94;99365.19;4960853;28;104694;-75
2022/12/01 08:46:41;;;;;;;19.63;13.77;;;;;;;4.44;84.92;99361.84;4958636;28;103320;-75
2022/12/01 08:49:09;;;;;;;20.33;14.60;;;;;;;4.43;84.83;99359.31;4958471;28;102918;-75
2022/12/01 08:51:39;;;;;;;19.47;13.10;;;;;;;4.40;84.67;99365.50;4967597;28;102890;-75
2022/12/01 08:54:07;;;;;;;19.43;14.37;;;;;;;4.41;84.19;99366.31;4956749;28;104283;-76
2022/12/01 08:56:37;;;;;;;19.93;14.47;;;;;;;4.36;85.00;99363.03;4971888;28;103414;-78
2022/12/01 08:59:07;;;;;;;22.07;15.07;;;;;;;4.24;84.42;99363.50;4994884;28;102761;-78
2022/12/01 09:01:50;;;;;;;21.13;15.80;;;;;;;4.42;83.80;99362.81;4955379;28;104182;-79
2022/12/01 09:04:19;;;;;;;21.47;15.13;;;;;;;4.48;84.00;99363.44;4973209;28;104028;-77
2022/12/01 09:06:51;;;;;;;21.23;14.47;;;;;;;4.52;83.26;99353.72;4961713;28;103252;-78
2022/12/01 09:09:21;;;;;;;23.37;14.70;;;;;;;4.48;83.62;99365.22;4970667;28;102849;-77
2022/12/01 09:11:52;;;;;;;20.87;15.37;;;;;;;4.75;82.50;99358.91;4989140;28;102715;-78
2022/12/01 09:14:22;;;;;;;21.83;14.50;;;;;;;4.55;83.16;99370.16;4971013;28;103298;-78
2022/12/01 09:16:50;;;;;;;22.30;15.40;;;;;;;4.37;83.81;99364.75;4964449;28;103194;-78
2022/12/01 09:19:21;;;;;;;22.87;14.93;;;;;;;4.41;83.78;99366.31;4994626;28;102761;-78
2022/12/01 09:21:53;;;;;;;19.33;13.47;;;;;;;4.56;83.57;99365.78;4990205;28;103053;-78
2022/12/01 09:24:21;;;;;;;19.97;14.27;;;;;;;4.17;84.44;99362.00;4950840;28;104308;-78
2022/12/01 09:26:49;;;;;;;24.13;15.07;;;;;;;4.55;83.95;99364.91;4970386;28;103253;-78
2022/12/01 09:29:17;;;;;;;21.67;15.53;;;;;;;4.41;83.40;99359.34;4970585;28;102692;-78
2022/12/01 09:31:45;;;;;;;19.67;14.17;;;;;;;4.58;82.74;99363.94;4960981;28;102633;-78
2022/12/01 09:34:15;;;;;;;22.33;14.60;;;;;;;4.58;82.50;99366.56;4957565;28;103235;-78
2022/12/01 09:36:43;;;;;;;21.70;14.90;;;;;;;4.46;83.46;99364.41;4930191;28;102672;-77
2022/12/01 09:39:15;;;;;;;20.67;14.97;;;;;;;4.40;83.74;99365.50;4962121;28;102984;-79
2022/12/01 09:41:46;;;;;;;18.87;12.97;;;;;;;4.64;82.84;99366.34;4942497;28;104064;-78
2022/12/01 09:44:22;;;;;;;20.63;13.73;;;;;;;5.01;82.69;99363.16;4962686;28;103016;-79
2022/12/01 09:46:58;;;;;;;17.90;12.60;;;;;;;4.86;82.97;99376.81;4960381;28;103378;-79
2022/12/01 09:49:38;;;;;;;20.33;14.23;;;;;;;5.08;82.27;99359.41;4950333;28;102778;-79
2022/12/01 09:52:09;;;;;;;23.10;15.07;;;;;;;4.73;82.54;99360.75;4959044;28;103824;-78
2022/12/01 09:54:38;;;;;;;17.70;12.43;;;;;;;5.13;82.93;99355.69;4956756;28;104107;-78
2022/12/01 09:57:13;;;;;;;21.40;13.90;;;;;;;5.35;81.56;99357.41;4952110;28;102978;-78
2022/12/01 09:59:42;;;;;;;20.33;13.63;;;;;;;5.56;80.28;99356.50;4953633;28;102993;-78
2022/12/01 10:02:24;;;;;;;21.03;14.37;;;;;;;5.01;80.29;99360.53;4953433;28;102684;-78
2022/12/01 10:04:54;;;;;;;19.33;14.20;;;;;;;4.82;81.37;99355.16;4976051;28;103831;-77
2022/12/01 10:07:28;;;;;;;19.17;13.80;;;;;;;5.10;81.06;99353.19;4953347;28;103275;-78
2022/12/01 10:10:02;;;;;;;21.07;14.87;;;;;;;5.32;80.78;99352.28;4972569;28;102830;-78
2022/12/01 10:12:33;;;;;;;17.93;13.27;;;;;;;5.06;80.71;99356.81;4960147;28;102650;-79
2022/12/01 10:15:15;;;;;;;20.90;14.90;;;;;;;4.93;81.16;99352.13;4956656;28;103186;-78
2022/12/01 10:17:55;;;;;;;21.17;14.53;;;;;;;5.12;81.25;99337.38;4964193;28;103263;-78
2022/12/01 10:20:28;;;;;;;20.57;13.80;;;;;;;5.35;80.33;99331.22;4954604;28;102815;-79
2022/12/01 10:23:27;;;;;;;20.87;14.50;;;;;;;5.36;80.55;99330.31;4954892;28;103972;-79
2022/12/01 10:25:58;;;;;;;20.17;14.33;;;;;;;5.35;78.75;99325.97;4955726;28;103285;-78
2022/12/01 10:28:45;;;;;;;19.90;13.93;;;;;;;5.04;80.59;99321.13;4957852;28;103332;-78
2022/12/01 10:31:20;;;;;;;22.23;15.80;;;;;;;5.02;80.32;99322.97;4961982;28;102796;-78
2022/12/01 10:34:04;;;;;;;21.97;14.37;;;;;;;5.23;79.88;99316.84;4965039;28;103190;-78
2022/12/01 10:36:33;;;;;;;24.00;15.37;;;;;;;5.21;80.16;99319.53;4962623;28;103407;-78
2022/12/01 10:39:02;;;;;;;21.80;15.70;;;;;;;4.91;80.63;99314.69;4961596;28;103446;-79
2022/12/01 10:41:36;;;;;;;23.63;15.80;;;;;;;4.86;81.15;99317.47;4951234;28;102610;-78
2022/12/01 10:44:05;;;;;;;22.17;14.47;;;;;;;5.22;80.65;99318.59;4971410;28;103084;-78
2022/12/01 10:46:41;;;;;;;21.57;14.97;;;;;;;5.37;80.22;99313.66;4961033;28;103042;-79
2022/12/01 10:49:11;;;;;;;22.73;14.90;;;;;;;5.24;80.56;99308.94;4974101;28;103858;-78
2022/12/01 10:51:51;;;;;;;23.03;15.13;;;;;;;5.13;80.90;99311.16;4961450;28;102856;-76
2022/12/01 10:54:24;;;;;;;22.73;15.40;;;;;;;5.30;80.18;99305.22;4972401;28;102757;-78
2022/12/01 10:56:56;;;;;;;19.80;14.73;;;;;;;5.10;81.29;99306.03;4951617;28;103311;-78
2022/12/01 10:59:29;;;;;;;20.07;13.67;;;;;;;5.56;80.81;99304.94;4953796;28;105726;-79
2022/12/01 11:01:58;;;;;;;26.07;17.50;;;;;;;5.44;79.50;99302.00;4961009;28;102709;-80
2022/12/01 11:04:46;;;;;;;28.83;18.47;;;;;;;5.44;79.65;99302.00;4964637;28;104481;-77
2022/12/01 11:07:20;;;;;;;22.90;15.80;;;;;;;5.17;80.98;99290.88;4967569;28;103149;-78
2022/12/01 11:09:59;;;;;;;20.07;13.63;;;;;;;5.35;80.39;99295.38;4971723;28;103197;-78
2022/12/01 11:12:29;;;;;;;22.50;15.77;;;;;;;5.13;79.78;99297.19;4977433;28;104096;-76
2022/12/01 11:14:57;;;;;;;20.83;14.37;;;;;;;5.46;81.01;99285.31;4959955;28;102953;-74
2022/12/01 11:17:29;;;;;;;21.70;14.30;;;;;;;5.48;80.28;99290.47;4961092;28;103419;-75
2022/12/01 11:19:57;;;;;;;20.33;14.33;;;;;;;5.36;80.79;99286.59;4958088;28;103183;-75
2022/12/01 11:22:28;;;;;;;20.57;13.97;;;;;;;5.21;80.40;99282.84;4939115;28;102591;-74
2022/12/01 11:25:00;;;;;;;17.00;12.20;;;;;;;5.79;80.29;99281.22;4972856;28;102817;-76
2022/12/01 11:27:33;;;;;;;18.50;13.40;;;;;;;5.75;79.43;99276.19;4952864;28;104392;-74
2022/12/01 11:30:05;;;;;;;22.23;13.93;;;;;;;5.68;79.04;99277.34;4980941;28;104239;-74
2022/12/01 11:32:35;;;;;;;19.87;13.63;;;;;;;5.95;78.36;99270.09;4972372;28;102699;-75
2022/12/01 11:35:14;;;;;;;21.73;15.50;;;;;;;5.69;79.17;99265.97;4970443;28;102807;-71
2022/12/01 11:37:46;;;;;;;21.30;14.00;;;;;;;5.76;78.14;99267.38;4961133;28;103203;-75
2022/12/01 11:40:46;;;;;;;18.90;13.73;;;;;;;5.78;78.39;99270.81;4970898;28;103300;-77